Greenville Mid-Delta Information

FAA: GLH - ICAO: KGLH

Greenville Mid-Delta (Airport) Location

State Mississippi
County Washington
City Greenville
Greenville Mid-Delta (Airport) is 5 miles northeast of Greenville, MS.
Latitude 33-28-58.3720N
Longitude 090-59-08.2100W
Elevation 130ft

Greenville Mid-Delta METARs

METAR KGLH 251733Z 02017G24KT 10SM FEW023 09/02 A3014 RMK AO2 T00940017
Altimeter 30.14"
Temperature 9.4°C (48.9°F)
Wind 20° at 17KT with gusts to 24KT
Clouds few at 2,300ft
Visibility 10.0mi
Time observed: 2022-01-25T17:33:00Z

Greenville Mid-Delta (Airport) Details

Status Operational
Activation June 1942
Ownership Public
Usage Public
Chart MEMPHIS
ATC on-site Yes
Beacon schedule sunset-sunrise
Beacon color clear green

Greenville Mid-Delta (Airport) Contacts

Owner CITY OF GREENVILLE
Owner address 340 MAIN STREET, GREENVILLE, MS 38701
Owner phone N/A
Manager JOHN FLETCHER
Manager address 1200 AIRPORT CIRCLE, DIAMONDHEAD, MS 39525
Manager phone (228) 216-1935

Greenville Mid-Delta Radio Frequencies

Greenville Mid-Delta (Airport) Radio Frequencies

UNICOM 122.95
Common traffic advisory frequency (CTAF) 119